createdAt,value
2023-04-26T00:00:11.842Z,100060.13
2023-04-26T00:05:14.256Z,100061.06
2023-04-26T00:10:16.037Z,100063.34
2023-04-26T00:15:17.604Z,100061.44
2023-04-26T00:20:19.368Z,100064.81
2023-04-26T00:25:21.019Z,100073.94
2023-04-26T00:30:22.763Z,100075.94
2023-04-26T00:35:24.572Z,100068.81
2023-04-26T00:40:26.184Z,100071.03
2023-04-26T00:45:27.872Z,100078.91
2023-04-26T00:50:30.260Z,100087.81
2023-04-26T00:55:31.927Z,100081.63
2023-04-26T01:00:34.097Z,100089.66
2023-04-26T01:05:36.742Z,100093.28
2023-04-26T01:10:39.266Z,100096.16
2023-04-26T01:15:47.738Z,100096.16
2023-04-26T01:20:49.450Z,100092.91
2023-04-26T01:25:51.280Z,100098.41
2023-04-26T01:30:53.026Z,100106.00
2023-04-26T01:35:54.701Z,100109.94
2023-04-26T01:40:57.455Z,100108.50
2023-04-26T01:45:59.212Z,100102.59
2023-04-26T01:51:04.605Z,100109.50
2023-04-26T01:56:08.258Z,100105.00
2023-04-26T02:01:10.131Z,100108.38
2023-04-26T02:06:12.113Z,100118.31
2023-04-26T02:11:13.792Z,100117.34
2023-04-26T02:16:16.880Z,100116.50
2023-04-26T02:21:21.501Z,100118.59
2023-04-26T02:26:23.128Z,100119.75
2023-04-26T02:31:24.857Z,100121.94
2023-04-26T02:36:27.294Z,100120.13
2023-04-26T02:41:32.832Z,100113.25
2023-04-26T02:46:34.531Z,100118.88
2023-04-26T02:51:36.353Z,100111.56
2023-04-26T02:56:38.211Z,100115.22
2023-04-26T03:01:39.908Z,100115.78
2023-04-26T03:06:41.635Z,100121.94
2023-04-26T03:11:43.177Z,100119.69
2023-04-26T03:16:44.962Z,100122.09
2023-04-26T03:21:46.710Z,100127.56
2023-04-26T03:26:48.384Z,100134.28
2023-04-26T03:31:50.410Z,100133.72
2023-04-26T03:36:52.085Z,100131.72
2023-04-26T03:41:54.112Z,100128.63
2023-04-26T03:46:56.094Z,100143.06
2023-04-26T03:51:57.936Z,100140.53
2023-04-26T03:56:59.506Z,100148.28
2023-04-26T04:02:01.232Z,100148.22
2023-04-26T04:07:03.126Z,100151.19
2023-04-26T04:12:04.890Z,100155.00
2023-04-26T04:17:08.529Z,100158.31
2023-04-26T04:22:10.346Z,100164.09
2023-04-26T04:27:14.984Z,100166.47
2023-04-26T04:32:17.559Z,100165.97
2023-04-26T04:37:19.756Z,100167.63
2023-04-26T04:42:22.323Z,100174.06
2023-04-26T04:47:25.754Z,100179.91
2023-04-26T04:52:28.034Z,100181.16
2023-04-26T04:57:30.217Z,100182.81
2023-04-26T05:02:33.270Z,100189.84
2023-04-26T05:07:35.069Z,100190.72
2023-04-26T05:12:37.118Z,100199.50
2023-04-26T05:17:39.008Z,100202.88
2023-04-26T05:22:55.887Z,100202.03
2023-04-26T05:27:57.531Z,100214.06
2023-04-26T05:33:10.267Z,100204.00
2023-04-26T05:38:21.943Z,100209.03
2023-04-26T05:43:23.517Z,100226.75
2023-04-26T05:48:25.305Z,100227.00
2023-04-26T05:53:26.989Z,100224.22
2023-04-26T05:58:28.796Z,100236.03
2023-04-26T06:03:31.012Z,100235.19
2023-04-26T06:08:33.485Z,100236.28
2023-04-26T06:13:35.313Z,100243.28
2023-04-26T06:18:37.311Z,100236.31
2023-04-26T06:23:38.975Z,100236.75
2023-04-26T06:28:42.212Z,100251.22
2023-04-26T06:33:44.386Z,100253.03
2023-04-26T06:38:47.678Z,100249.25
2023-04-26T06:43:49.429Z,100248.00
2023-04-26T06:48:56.177Z,100248.78
2023-04-26T06:54:00.937Z,100256.47
2023-04-26T06:59:04.881Z,100258.75
2023-04-26T07:04:13.779Z,100257.31
2023-04-26T07:09:15.440Z,100258.16
2023-04-26T07:14:18.951Z,100260.72
2023-04-26T07:19:20.572Z,100269.63
2023-04-26T07:24:22.110Z,100262.63
2023-04-26T07:29:23.814Z,100262.69
2023-04-26T07:34:26.671Z,100269.94
2023-04-26T07:39:28.292Z,100267.19
2023-04-26T07:44:29.962Z,100262.59
2023-04-26T07:49:31.648Z,100273.03
2023-04-26T07:54:33.288Z,100268.63
2023-04-26T07:59:34.978Z,100272.47
2023-04-26T08:04:36.787Z,100261.94
2023-04-26T08:09:38.462Z,100262.94
2023-04-26T08:14:40.359Z,100263.47
2023-04-26T08:19:42.068Z,100270.34
2023-04-26T08:24:48.132Z,100270.59
2023-04-26T08:29:49.752Z,100274.88
2023-04-26T08:34:51.321Z,100282.50
2023-04-26T08:39:52.880Z,100268.50
2023-04-26T08:44:54.750Z,100271.59
2023-04-26T08:50:02.732Z,100266.78
2023-04-26T08:55:05.447Z,100266.59
2023-04-26T09:00:13.465Z,100265.25
2023-04-26T09:05:15.358Z,100273.47
2023-04-26T09:10:21.632Z,100274.84
2023-04-26T09:15:24.600Z,100282.63
2023-04-26T09:20:28.663Z,100282.78
2023-04-26T09:25:31.351Z,100268.22
2023-04-26T09:30:39.796Z,100278.94
2023-04-26T09:35:42.855Z,100277.09
2023-04-26T09:40:49.706Z,100268.63
2023-04-26T09:45:56.768Z,100273.69
2023-04-26T09:51:04.308Z,100271.38
2023-04-26T09:56:19.695Z,100280.94
2023-04-26T10:01:21.351Z,100277.06
2023-04-26T10:06:23.491Z,100267.69
2023-04-26T10:11:26.707Z,100275.16
2023-04-26T10:16:28.840Z,100274.44
2023-04-26T10:21:32.609Z,100281.63
2023-04-26T10:26:48.783Z,100282.69
2023-04-26T10:32:02.400Z,100279.16
2023-04-26T10:37:08.598Z,100282.13
2023-04-26T10:42:24.690Z,100263.38
2023-04-26T10:47:29.006Z,100275.72
2023-04-26T10:52:30.869Z,100282.44
2023-04-26T10:57:49.314Z,100272.56
2023-04-26T11:03:05.082Z,100260.25
2023-04-26T11:08:20.798Z,100270.09
2023-04-26T11:13:22.434Z,100272.28
2023-04-26T11:18:24.142Z,100264.69
2023-04-26T11:23:28.160Z,100269.63
2023-04-26T11:28:34.531Z,100267.66
2023-04-26T11:33:36.315Z,100261.75
2023-04-26T11:38:38.079Z,100264.84
2023-04-26T11:43:40.400Z,100269.84
2023-04-26T11:48:42.372Z,100272.34
2023-04-26T11:53:44.512Z,100289.75
2023-04-26T11:58:51.668Z,100298.28
2023-04-26T12:03:55.798Z,100298.59
2023-04-26T12:08:57.520Z,100301.78
2023-04-26T12:13:59.751Z,100303.81
2023-04-26T12:19:05.657Z,100288.25
2023-04-26T12:24:07.584Z,100288.09
2023-04-26T12:29:09.425Z,100298.28
2023-04-26T12:34:11.160Z,100289.84
2023-04-26T12:39:14.430Z,100287.81
2023-04-26T12:44:16.257Z,100287.41
2023-04-26T12:49:17.838Z,100288.53
2023-04-26T12:54:19.497Z,100283.50
2023-04-26T12:59:21.080Z,100284.38
2023-04-26T13:04:22.819Z,100282.47
2023-04-26T13:09:24.545Z,100283.13
2023-04-26T13:14:26.209Z,100288.13
2023-04-26T13:19:27.758Z,100279.84
2023-04-26T13:24:29.354Z,100283.13
2023-04-26T13:29:33.430Z,100292.69
2023-04-26T13:34:35.776Z,100281.53
2023-04-26T13:39:37.358Z,100281.59
2023-04-26T13:44:39.544Z,100286.00
2023-04-26T13:49:41.817Z,100280.28
2023-04-26T13:54:43.520Z,100286.09
2023-04-26T13:59:45.625Z,100283.91
2023-04-26T14:04:47.525Z,100295.94
2023-04-26T14:09:50.293Z,100292.25
2023-04-26T14:14:51.910Z,100291.13
2023-04-26T14:19:54.817Z,100291.22
2023-04-26T14:24:56.697Z,100296.44
2023-04-26T14:29:58.259Z,100297.53
2023-04-26T14:34:59.836Z,100303.06
2023-04-26T14:40:01.414Z,100300.66
2023-04-26T14:45:03.443Z,100300.44
2023-04-26T14:50:07.713Z,100301.94
2023-04-26T14:55:09.475Z,100303.88
2023-04-26T15:00:15.048Z,100303.75
2023-04-26T15:05:16.898Z,100307.03
2023-04-26T15:10:18.623Z,100300.59
2023-04-26T15:15:20.402Z,100302.47
2023-04-26T15:20:22.333Z,100303.78
2023-04-26T15:25:23.906Z,100294.56
2023-04-26T15:30:25.711Z,100301.09
2023-04-26T15:35:27.337Z,100301.13
2023-04-26T15:40:28.909Z,100306.06
2023-04-26T15:45:30.497Z,100305.53
2023-04-26T15:50:32.111Z,100309.25
2023-04-26T15:55:33.878Z,100315.97
2023-04-26T16:00:36.421Z,100319.88
2023-04-26T16:05:37.968Z,100310.75
2023-04-26T16:10:39.524Z,100306.75
2023-04-26T16:15:41.289Z,100307.75
2023-04-26T16:20:42.927Z,100304.09
2023-04-26T16:25:44.649Z,100312.06
2023-04-26T16:30:46.419Z,100309.69
2023-04-26T16:35:57.788Z,100305.88
2023-04-26T16:41:01.639Z,100308.63
2023-04-26T16:46:07.563Z,100310.06
2023-04-26T16:51:09.415Z,100317.13
2023-04-26T16:56:11.065Z,100320.56
2023-04-26T17:01:12.856Z,100316.19
2023-04-26T17:06:14.438Z,100321.50
2023-04-26T17:11:16.577Z,100320.25
2023-04-26T17:16:18.221Z,100323.63
2023-04-26T17:21:19.878Z,100336.72
2023-04-26T17:26:21.911Z,100333.13
2023-04-26T17:31:23.498Z,100328.06
2023-04-26T17:36:25.102Z,100345.88
2023-04-26T17:41:26.748Z,100337.00
2023-04-26T17:46:28.463Z,100344.97
2023-04-26T17:51:30.138Z,100345.00
2023-04-26T17:56:31.751Z,100351.34
2023-04-26T18:01:36.393Z,100351.69
2023-04-26T18:06:38.159Z,100361.59
2023-04-26T18:11:40.038Z,100354.81
2023-04-26T18:16:42.213Z,100360.47
2023-04-26T18:21:43.833Z,100364.16
2023-04-26T18:26:45.477Z,100366.66
2023-04-26T18:31:47.312Z,100369.25
2023-04-26T18:36:48.941Z,100375.19
2023-04-26T18:41:52.091Z,100371.53
2023-04-26T18:46:55.825Z,100376.16
2023-04-26T18:51:57.558Z,100381.94
2023-04-26T18:57:01.096Z,100379.34
2023-04-26T19:02:04.938Z,100386.47
2023-04-26T19:07:06.824Z,100377.19
2023-04-26T19:12:08.950Z,100393.28
2023-04-26T19:17:11.318Z,100394.41
2023-04-26T19:22:13.152Z,100397.97
2023-04-26T19:27:14.777Z,100399.25
2023-04-26T19:32:18.880Z,100402.06
2023-04-26T19:37:20.677Z,100398.69
2023-04-26T19:42:22.258Z,100403.81
2023-04-26T19:47:23.897Z,100411.13
2023-04-26T19:52:25.613Z,100408.31
2023-04-26T19:57:27.165Z,100412.84
2023-04-26T20:02:28.891Z,100410.88
2023-04-26T20:07:30.644Z,100413.28
2023-04-26T20:12:33.208Z,100418.06
2023-04-26T20:17:34.780Z,100410.34
2023-04-26T20:22:36.805Z,100412.00
2023-04-26T20:27:38.595Z,100402.75
2023-04-26T20:32:40.564Z,100402.59
2023-04-26T20:37:42.222Z,100405.56
2023-04-26T20:42:43.882Z,100404.16
2023-04-26T20:47:45.764Z,100408.06
2023-04-26T20:52:47.432Z,100403.84
2023-04-26T20:57:49.340Z,100403.00
2023-04-26T21:02:51.011Z,100403.97
2023-04-26T21:07:52.698Z,100400.75
2023-04-26T21:12:54.347Z,100403.66
2023-04-26T21:17:56.044Z,100404.88
2023-04-26T21:22:57.719Z,100406.28
2023-04-26T21:27:59.307Z,100416.34
2023-04-26T21:33:00.966Z,100417.75
2023-04-26T21:38:02.624Z,100425.78
2023-04-26T21:43:05.294Z,100427.97
2023-04-26T21:48:07.856Z,100434.69
2023-04-26T21:53:09.494Z,100438.06
2023-04-26T21:58:11.223Z,100434.34
2023-04-26T22:03:13.555Z,100445.31
2023-04-26T22:08:15.455Z,100455.78
2023-04-26T22:13:17.077Z,100453.50
2023-04-26T22:18:18.901Z,100453.28
2023-04-26T22:23:20.842Z,100456.09
2023-04-26T22:28:22.512Z,100462.47
2023-04-26T22:33:24.101Z,100468.88
2023-04-26T22:38:25.800Z,100465.53
2023-04-26T22:43:27.376Z,100466.84
2023-04-26T22:48:29.032Z,100470.09
2023-04-26T22:53:30.664Z,100470.34
2023-04-26T22:58:32.312Z,100477.59
2023-04-26T23:03:37.085Z,100482.50
2023-04-26T23:08:38.743Z,100487.31
2023-04-26T23:13:40.289Z,100477.06
2023-04-26T23:18:42.481Z,100484.34
2023-04-26T23:23:44.100Z,100487.13
2023-04-26T23:28:45.778Z,100482.28
2023-04-26T23:33:47.332Z,100480.38
2023-04-26T23:38:48.879Z,100486.94
2023-04-26T23:43:50.437Z,100487.41
2023-04-26T23:48:52.020Z,100496.63
2023-04-26T23:53:53.662Z,100484.53
2023-04-26T23:58:55.203Z,100481.38
